Time;durP1;ratioP1;P1;durP2;ratioP2;P2;SDS_P1;SDS_P2;PMS_P1;PMS_P2;Temp;Humidity;BMP_temperature;BMP_pressure;BME280_temperature;BME280_humidity;BME280_pressure;Samples;Min_cycle;Max_cycle;Signal;HPM_P1;HPM_P2
2022/11/26 00:01:39;;;;;;;28.30;6.80;;;;;;;;;;7389040;19;20003;-73
2022/11/26 00:04:05;;;;;;;16.33;4.93;;;;;;;;;;7395199;19;19994;-74
2022/11/26 00:06:34;;;;;;;22.27;8.68;;;;;;;;;;7395193;19;20448;-73
2022/11/26 00:09:00;;;;;;;15.65;5.60;;;;;;;;;;7396007;19;20021;-73
2022/11/26 00:11:26;;;;;;;19.77;4.70;;;;;;;;;;7396347;19;20342;-73
2022/11/26 00:13:52;;;;;;;15.40;4.07;;;;;;;;;;7393729;19;20129;-73
2022/11/26 00:16:17;;;;;;;14.48;3.88;;;;;;;;;;7394234;19;20013;-73
2022/11/26 00:18:42;;;;;;;25.70;6.90;;;;;;;;;;7395085;19;19994;-73
2022/11/26 00:21:26;;;;;;;34.72;11.75;;;;;;;;;;7396039;19;19998;-73
2022/11/26 00:23:53;;;;;;;41.53;13.65;;;;;;;;;;7395761;19;20002;-73
2022/11/26 00:26:21;;;;;;;16.73;5.63;;;;;;;;;;7395246;19;20002;-73
2022/11/26 00:29:01;;;;;;;12.65;3.22;;;;;;;;;;7395347;19;20066;-73
2022/11/26 00:31:27;;;;;;;11.52;3.15;;;;;;;;;;7396229;19;20374;-73
2022/11/26 00:33:52;;;;;;;13.57;3.60;;;;;;;;;;7393840;19;19998;-73
2022/11/26 00:36:18;;;;;;;14.88;3.47;;;;;;;;;;7394980;19;19994;-74
2022/11/26 00:38:46;;;;;;;12.95;3.15;;;;;;;;;;7394913;19;20025;-73
2022/11/26 00:41:21;;;;;;;14.20;2.95;;;;;;;;;;7399787;19;19998;-73
2022/11/26 00:43:47;;;;;;;11.52;2.95;;;;;;;;;;7394635;19;20449;-73
2022/11/26 00:46:13;;;;;;;10.40;3.30;;;;;;;;;;7392551;19;20018;-73
2022/11/26 00:48:39;;;;;;;11.90;3.10;;;;;;;;;;7393769;19;20659;-73
2022/11/26 00:51:04;;;;;;;18.52;3.08;;;;;;;;;;7394143;19;20039;-73
2022/11/26 00:53:30;;;;;;;11.00;2.88;;;;;;;;;;7393294;19;20017;-73
2022/11/26 00:55:55;;;;;;;11.68;2.90;;;;;;;;;;7394530;19;20006;-73
2022/11/26 00:58:28;;;;;;;16.88;3.72;;;;;;;;;;7391280;19;19998;-73
2022/11/26 01:00:56;;;;;;;20.08;3.70;;;;;;;;;;7394170;19;19999;-73
2022/11/26 01:03:22;;;;;;;14.20;3.53;;;;;;;;;;7394022;19;20015;-73
2022/11/26 01:05:53;;;;;;;11.48;4.00;;;;;;;;;;7394094;19;20015;-73
2022/11/26 01:08:34;;;;;;;11.75;3.22;;;;;;;;;;7391718;19;20007;-73
2022/11/26 01:11:01;;;;;;;12.90;3.15;;;;;;;;;;7394360;19;20024;-73
2022/11/26 01:13:27;;;;;;;15.63;3.47;;;;;;;;;;7392786;19;20005;-73
2022/11/26 01:15:54;;;;;;;14.90;3.65;;;;;;;;;;7391055;19;19999;-73
2022/11/26 01:18:20;;;;;;;10.95;3.22;;;;;;;;;;7391801;19;20396;-73
2022/11/26 01:20:46;;;;;;;13.23;3.78;;;;;;;;;;7394595;19;20340;-73
2022/11/26 01:23:14;;;;;;;11.95;3.10;;;;;;;;;;7394442;19;20032;-73
2022/11/26 01:25:41;;;;;;;10.75;3.42;;;;;;;;;;7392447;19;20019;-73
2022/11/26 01:28:11;;;;;;;13.02;3.13;;;;;;;;;;7391205;19;20101;-73
2022/11/26 01:30:37;;;;;;;10.70;3.50;;;;;;;;;;7392162;19;20003;-73
2022/11/26 01:33:02;;;;;;;15.90;3.67;;;;;;;;;;7392804;19;20276;-73
2022/11/26 01:35:27;;;;;;;14.45;3.22;;;;;;;;;;7398189;19;20477;-73
2022/11/26 01:37:53;;;;;;;15.10;3.78;;;;;;;;;;7386818;19;20452;-73
2022/11/26 01:40:31;;;;;;;16.02;3.45;;;;;;;;;;7391414;19;20472;-73
2022/11/26 01:43:14;;;;;;;16.58;3.50;;;;;;;;;;7391322;19;20480;-72
2022/11/26 01:45:39;;;;;;;14.30;3.50;;;;;;;;;;7393724;19;20058;-72
2022/11/26 01:48:25;;;;;;;18.90;3.35;;;;;;;;;;7389649;19;20485;-71
2022/11/26 01:50:53;;;;;;;11.45;3.42;;;;;;;;;;7392771;19;20499;-72
2022/11/26 01:53:33;;;;;;;14.23;3.33;;;;;;;;;;7392017;19;20365;-72
2022/11/26 01:56:12;;;;;;;10.30;3.22;;;;;;;;;;7395215;19;20391;-72
2022/11/26 01:58:42;;;;;;;10.80;3.50;;;;;;;;;;7390111;19;20018;-72
2022/11/26 02:01:07;;;;;;;14.93;3.90;;;;;;;;;;7392740;19;20114;-72
2022/11/26 02:03:42;;;;;;;13.98;4.20;;;;;;;;;;7390460;19;20106;-72
2022/11/26 02:06:12;;;;;;;18.63;4.25;;;;;;;;;;7392202;19;19999;-72
2022/11/26 02:08:38;;;;;;;14.38;3.67;;;;;;;;;;7389983;19;20003;-72
2022/11/26 02:11:19;;;;;;;16.27;3.78;;;;;;;;;;7391933;19;20002;-72
2022/11/26 02:13:47;;;;;;;20.90;4.15;;;;;;;;;;7389283;19;20010;-72
2022/11/26 02:16:20;;;;;;;14.27;3.65;;;;;;;;;;7392273;19;20341;-72
2022/11/26 02:18:57;;;;;;;13.93;3.47;;;;;;;;;;7391771;19;20017;-72
2022/11/26 02:21:26;;;;;;;13.27;3.88;;;;;;;;;;7391677;19;20484;-72
2022/11/26 02:24:06;;;;;;;17.40;3.72;;;;;;;;;;7391843;19;20066;-72
2022/11/26 02:27:02;;;;;;;12.75;4.10;;;;;;;;;;7390748;19;19994;-72
2022/11/26 02:29:43;;;;;;;16.08;3.88;;;;;;;;;;7393364;19;20473;-73
2022/11/26 02:32:16;;;;;;;;;;;;;;;;;;7390955;19;20015;-72
2022/11/26 02:34:50;;;;;;;16.10;3.63;;;;;;;;;;7388202;19;19930;-72
2022/11/26 02:37:23;;;;;;;11.98;3.45;;;;;;;;;;7392149;19;20010;-72
2022/11/26 02:39:50;;;;;;;12.73;3.45;;;;;;;;;;7391343;19;20003;-72
2022/11/26 02:42:34;;;;;;;16.23;3.45;;;;;;;;;;7391163;19;20002;-72
2022/11/26 02:45:04;;;;;;;11.48;3.03;;;;;;;;;;7388587;19;20115;-72
2022/11/26 02:47:31;;;;;;;11.07;3.45;;;;;;;;;;7393099;19;20018;-72
2022/11/26 02:50:04;;;;;;;10.77;3.70;;;;;;;;;;7390641;19;19990;-72
2022/11/26 02:52:32;;;;;;;11.98;3.50;;;;;;;;;;7390534;19;20023;-72
2022/11/26 02:54:58;;;;;;;13.55;3.13;;;;;;;;;;7390967;19;19991;-72
2022/11/26 02:57:28;;;;;;;14.88;3.42;;;;;;;;;;7389087;19;20114;-72
2022/11/26 02:59:54;;;;;;;13.30;3.08;;;;;;;;;;7389361;19;20395;-72
2022/11/26 03:02:37;;;;;;;18.15;4.10;;;;;;;;;;7390637;19;20004;-72
2022/11/26 03:05:05;;;;;;;11.63;3.50;;;;;;;;;;7394611;19;20014;-72
2022/11/26 03:07:31;;;;;;;11.93;3.45;;;;;;;;;;7388644;19;19995;-72
2022/11/26 03:09:58;;;;;;;11.30;3.30;;;;;;;;;;7388499;19;20154;-72
2022/11/26 03:12:24;;;;;;;14.32;3.40;;;;;;;;;;7390177;19;19994;-72
2022/11/26 03:14:50;;;;;;;10.30;3.35;;;;;;;;;;7389234;19;19994;-72
2022/11/26 03:17:16;;;;;;;14.35;3.00;;;;;;;;;;7387566;19;20001;-72
2022/11/26 03:19:42;;;;;;;11.13;3.60;;;;;;;;;;7388841;19;20484;-72
2022/11/26 03:22:07;;;;;;;18.00;4.00;;;;;;;;;;7392355;19;20002;-72
2022/11/26 03:24:33;;;;;;;17.77;4.13;;;;;;;;;;7389832;19;20010;-72
2022/11/26 03:26:58;;;;;;;13.93;3.60;;;;;;;;;;7388135;19;20350;-72
2022/11/26 03:29:24;;;;;;;13.57;4.00;;;;;;;;;;7392752;19;20386;-72
2022/11/26 03:31:49;;;;;;;9.02;2.92;;;;;;;;;;7388984;19;20020;-72
2022/11/26 03:34:15;;;;;;;9.98;3.25;;;;;;;;;;7387958;19;20011;-72
2022/11/26 03:36:40;;;;;;;12.98;3.05;;;;;;;;;;7386431;19;20355;-72
2022/11/26 03:39:06;;;;;;;11.15;3.25;;;;;;;;;;7400702;19;20027;-73
2022/11/26 03:41:31;;;;;;;9.95;3.13;;;;;;;;;;7395598;19;20020;-72
2022/11/26 03:43:56;;;;;;;14.43;3.50;;;;;;;;;;7395403;19;19990;-72
2022/11/26 03:46:22;;;;;;;19.98;4.00;;;;;;;;;;7395956;19;19998;-72
2022/11/26 03:48:47;;;;;;;16.92;3.53;;;;;;;;;;7396514;19;20102;-72
2022/11/26 03:51:12;;;;;;;15.10;4.18;;;;;;;;;;7396470;19;20000;-72
2022/11/26 03:53:38;;;;;;;14.25;4.25;;;;;;;;;;7395893;19;20010;-72
2022/11/26 03:56:03;;;;;;;14.82;4.35;;;;;;;;;;7396276;19;20098;-73
2022/11/26 03:58:29;;;;;;;19.70;4.03;;;;;;;;;;7393919;19;20007;-72
2022/11/26 04:00:54;;;;;;;7.57;3.88;;;;;;;;;;7397177;19;20043;-72
2022/11/26 04:03:20;;;;;;;21.52;3.90;;;;;;;;;;7396346;19;20009;-72
2022/11/26 04:05:45;;;;;;;16.42;4.03;;;;;;;;;;7395040;19;20020;-72
2022/11/26 04:08:11;;;;;;;17.60;3.80;;;;;;;;;;7393437;19;20002;-73
2022/11/26 04:10:36;;;;;;;13.60;3.92;;;;;;;;;;7394796;19;19982;-72
2022/11/26 04:13:01;;;;;;;12.40;4.13;;;;;;;;;;7399747;19;20006;-73
2022/11/26 04:15:27;;;;;;;14.85;3.88;;;;;;;;;;7394534;19;19995;-72
2022/11/26 04:17:52;;;;;;;14.48;4.18;;;;;;;;;;7391914;19;20757;-73
2022/11/26 04:20:17;;;;;;;14.43;4.32;;;;;;;;;;7395962;19;19994;-73
2022/11/26 04:22:43;;;;;;;15.20;4.25;;;;;;;;;;7395803;19;20012;-73
2022/11/26 04:25:08;;;;;;;12.43;4.63;;;;;;;;;;7395864;19;20335;-73
2022/11/26 04:27:34;;;;;;;12.88;3.72;;;;;;;;;;7393440;19;20523;-74
2022/11/26 04:29:59;;;;;;;14.02;3.90;;;;;;;;;;7399633;19;20010;-73
2022/11/26 04:32:25;;;;;;;14.75;3.50;;;;;;;;;;7395552;19;20107;-73
2022/11/26 04:34:50;;;;;;;9.60;3.53;;;;;;;;;;7395358;19;20467;-73
2022/11/26 04:37:15;;;;;;;10.13;3.83;;;;;;;;;;7393446;19;19999;-73
2022/11/26 04:39:41;;;;;;;11.65;3.85;;;;;;;;;;7395275;19;19991;-72
2022/11/26 04:42:06;;;;;;;12.00;3.45;;;;;;;;;;7394972;19;19995;-73
2022/11/26 04:44:31;;;;;;;10.40;3.45;;;;;;;;;;7395168;19;20021;-73
2022/11/26 04:46:57;;;;;;;17.70;3.63;;;;;;;;;;7396244;19;19994;-72
2022/11/26 04:49:22;;;;;;;12.68;3.58;;;;;;;;;;7391983;19;20014;-72
2022/11/26 04:51:48;;;;;;;12.98;4.13;;;;;;;;;;7394763;19;20041;-72
2022/11/26 04:54:13;;;;;;;14.40;3.97;;;;;;;;;;7392717;19;20009;-73
2022/11/26 04:56:39;;;;;;;14.40;3.85;;;;;;;;;;7393948;19;20003;-72
2022/11/26 04:59:04;;;;;;;13.35;3.92;;;;;;;;;;7394719;19;20066;-74
2022/11/26 05:01:30;;;;;;;13.25;4.30;;;;;;;;;;7393667;19;20508;-73
2022/11/26 05:03:55;;;;;;;10.60;3.75;;;;;;;;;;7394686;19;20006;-74
2022/11/26 05:06:20;;;;;;;13.57;4.25;;;;;;;;;;7393818;19;20322;-73
2022/11/26 05:08:46;;;;;;;13.48;4.22;;;;;;;;;;7394149;19;20456;-74
2022/11/26 05:11:11;;;;;;;16.13;4.32;;;;;;;;;;7393965;19;20070;-74
2022/11/26 05:13:36;;;;;;;15.13;3.88;;;;;;;;;;7392696;19;20026;-73
2022/11/26 05:16:02;;;;;;;12.57;4.35;;;;;;;;;;7392686;19;19995;-74
2022/11/26 05:18:27;;;;;;;11.32;4.32;;;;;;;;;;7390778;19;19995;-73
2022/11/26 05:20:52;;;;;;;16.05;3.53;;;;;;;;;;7397529;19;20466;-73
2022/11/26 05:23:18;;;;;;;9.63;3.90;;;;;;;;;;7393560;19;20452;-72
2022/11/26 05:25:43;;;;;;;17.17;4.03;;;;;;;;;;7393621;19;20018;-72
2022/11/26 05:28:08;;;;;;;16.20;3.80;;;;;;;;;;7391079;19;20023;-73
2022/11/26 05:30:34;;;;;;;14.13;3.72;;;;;;;;;;7396181;19;20016;-73
2022/11/26 05:32:59;;;;;;;14.27;3.40;;;;;;;;;;7392677;19;20003;-73
2022/11/26 05:35:24;;;;;;;15.63;4.00;;;;;;;;;;7391808;19;19994;-73
2022/11/26 05:37:50;;;;;;;12.57;3.75;;;;;;;;;;7393918;19;20011;-73
2022/11/26 05:40:15;;;;;;;10.68;3.78;;;;;;;;;;7393136;19;20001;-73
2022/11/26 05:42:41;;;;;;;10.52;3.35;;;;;;;;;;7393006;19;20012;-73
2022/11/26 05:45:07;;;;;;;18.58;4.72;;;;;;;;;;7392539;19;20002;-73
2022/11/26 05:47:32;;;;;;;14.95;4.55;;;;;;;;;;7317128;19;20013;-73
2022/11/26 05:49:58;;;;;;;12.77;3.60;;;;;;;;;;7396446;19;19990;-71
2022/11/26 05:52:23;;;;;;;18.77;4.60;;;;;;;;;;7395002;19;19998;-73
2022/11/26 05:54:49;;;;;;;9.98;3.33;;;;;;;;;;7390655;19;20114;-73
2022/11/26 05:57:14;;;;;;;12.45;3.88;;;;;;;;;;7391284;19;20005;-72
2022/11/26 05:59:39;;;;;;;12.98;3.58;;;;;;;;;;7394796;19;20072;-73
2022/11/26 06:02:05;;;;;;;16.02;4.13;;;;;;;;;;7391072;19;19998;-73
2022/11/26 06:04:31;;;;;;;13.02;3.67;;;;;;;;;;7389258;19;20661;-72
2022/11/26 06:06:57;;;;;;;14.80;4.57;;;;;;;;;;7389973;19;20058;-73
2022/11/26 06:09:22;;;;;;;15.40;4.03;;;;;;;;;;7394024;19;19994;-73
2022/11/26 06:11:49;;;;;;;19.35;4.15;;;;;;;;;;7390582;19;20007;-73
2022/11/26 06:14:14;;;;;;;13.13;4.30;;;;;;;;;;7390770;19;20011;-72
2022/11/26 06:16:40;;;;;;;13.93;4.68;;;;;;;;;;7391104;19;19994;-72
2022/11/26 06:19:05;;;;;;;21.60;4.35;;;;;;;;;;7391843;19;20353;-73
2022/11/26 06:21:32;;;;;;;14.63;4.03;;;;;;;;;;7392006;19;19993;-72
2022/11/26 06:23:57;;;;;;;18.73;4.45;;;;;;;;;;7392099;19;20475;-73
2022/11/26 06:26:22;;;;;;;12.88;4.88;;;;;;;;;;7392883;19;19995;-73
2022/11/26 06:28:48;;;;;;;9.93;4.28;;;;;;;;;;7391487;19;20010;-73
2022/11/26 06:31:13;;;;;;;14.77;3.60;;;;;;;;;;7391725;19;19995;-73
2022/11/26 06:33:38;;;;;;;8.02;3.33;;;;;;;;;;7390905;19;20038;-73
2022/11/26 06:36:04;;;;;;;9.52;3.63;;;;;;;;;;7391399;19;20023;-73
2022/11/26 06:38:30;;;;;;;14.93;3.42;;;;;;;;;;7389111;19;20062;-73
2022/11/26 06:41:00;;;;;;;17.27;3.75;;;;;;;;;;7395730;19;20016;-73
2022/11/26 06:43:26;;;;;;;9.55;3.63;;;;;;;;;;7391296;19;20467;-72
2022/11/26 06:45:51;;;;;;;8.18;3.47;;;;;;;;;;7393587;19;19990;-72
2022/11/26 06:48:17;;;;;;;16.40;3.67;;;;;;;;;;7389354;19;20013;-72
2022/11/26 06:50:42;;;;;;;7.72;3.03;;;;;;;;;;7390761;19;19994;-73
2022/11/26 06:53:07;;;;;;;15.48;3.50;;;;;;;;;;7390168;19;20010;-73
2022/11/26 06:55:33;;;;;;;14.02;3.28;;;;;;;;;;7391017;19;20460;-73
2022/11/26 06:57:58;;;;;;;8.30;3.42;;;;;;;;;;7389202;19;20406;-73
2022/11/26 07:00:23;;;;;;;15.65;3.67;;;;;;;;;;7389283;19;20098;-73
2022/11/26 07:02:49;;;;;;;9.82;3.47;;;;;;;;;;7393195;19;19998;-73
2022/11/26 07:05:14;;;;;;;9.27;4.53;;;;;;;;;;7391309;19;20014;-73
2022/11/26 07:07:39;;;;;;;15.48;3.42;;;;;;;;;;7389016;19;20020;-73
2022/11/26 07:10:06;;;;;;;14.13;4.28;;;;;;;;;;7390512;19;20468;-73
2022/11/26 07:12:32;;;;;;;12.27;3.58;;;;;;;;;;7388788;19;20019;-73
2022/11/26 07:14:57;;;;;;;11.40;3.30;;;;;;;;;;7390730;19;20407;-74
2022/11/26 07:17:22;;;;;;;11.45;3.90;;;;;;;;;;7389084;19;20478;-72
2022/11/26 07:19:48;;;;;;;13.77;3.95;;;;;;;;;;7393228;19;20419;-72
2022/11/26 07:22:13;;;;;;;14.73;4.35;;;;;;;;;;7390319;19;19998;-72
2022/11/26 07:24:39;;;;;;;10.50;3.95;;;;;;;;;;7392301;19;19994;-73
2022/11/26 07:27:04;;;;;;;14.57;3.38;;;;;;;;;;7389362;19;20432;-74
2022/11/26 07:29:29;;;;;;;14.50;4.00;;;;;;;;;;7390100;19;19999;-73
2022/11/26 07:31:55;;;;;;;9.07;3.63;;;;;;;;;;7388244;19;20001;-74
2022/11/26 07:34:20;;;;;;;9.20;4.00;;;;;;;;;;7388834;19;19990;-73
2022/11/26 07:36:45;;;;;;;9.82;3.45;;;;;;;;;;7389191;19;20021;-74
2022/11/26 07:39:11;;;;;;;11.57;3.72;;;;;;;;;;7390788;19;20054;-74
2022/11/26 07:41:37;;;;;;;13.30;4.07;;;;;;;;;;7388593;19;20082;-74
2022/11/26 07:44:02;;;;;;;6.82;3.55;;;;;;;;;;7389840;19;20352;-74
2022/11/26 07:46:27;;;;;;;13.95;4.07;;;;;;;;;;7387843;19;20056;-73
2022/11/26 07:48:56;;;;;;;13.70;4.40;;;;;;;;;;7389226;19;19999;-71
2022/11/26 07:51:24;;;;;;;9.13;3.50;;;;;;;;;;7388849;19;20540;-72
2022/11/26 07:53:50;;;;;;;10.38;3.65;;;;;;;;;;7383133;19;20046;-75
2022/11/26 07:56:16;;;;;;;8.85;3.22;;;;;;;;;;7388497;19;20023;-74
2022/11/26 07:58:42;;;;;;;13.88;3.65;;;;;;;;;;7384159;19;19998;-74
2022/11/26 08:01:16;;;;;;;9.50;3.63;;;;;;;;;;7386290;19;20055;-74
2022/11/26 08:03:44;;;;;;;11.15;3.30;;;;;;;;;;7384673;19;20470;-73
2022/11/26 08:06:13;;;;;;;9.05;2.90;;;;;;;;;;7386763;19;19991;-72
2022/11/26 08:08:38;;;;;;;13.18;3.40;;;;;;;;;;7383570;19;20472;-73
2022/11/26 08:11:11;;;;;;;10.65;3.25;;;;;;;;;;7388625;19;20009;-73
2022/11/26 08:13:36;;;;;;;10.18;4.30;;;;;;;;;;7384062;19;20035;-73
2022/11/26 08:16:02;;;;;;;14.25;3.92;;;;;;;;;;7386480;19;20006;-74
2022/11/26 08:18:27;;;;;;;10.70;4.53;;;;;;;;;;7385767;19;20032;-74
2022/11/26 08:20:56;;;;;;;9.50;4.55;;;;;;;;;;7385972;19;20042;-74
2022/11/26 08:23:24;;;;;;;15.27;4.32;;;;;;;;;;7387861;19;20003;-73
2022/11/26 08:25:50;;;;;;;14.15;4.32;;;;;;;;;;7392445;19;20170;-74
2022/11/26 08:28:15;;;;;;;12.82;4.47;;;;;;;;;;7389984;19;20131;-73
2022/11/26 08:30:40;;;;;;;10.50;4.13;;;;;;;;;;7394805;19;20078;-73
2022/11/26 08:33:06;;;;;;;9.45;4.50;;;;;;;;;;7391052;19;20003;-74
2022/11/26 08:35:34;;;;;;;13.00;4.75;;;;;;;;;;7393139;19;20006;-73
2022/11/26 08:37:59;;;;;;;11.82;4.60;;;;;;;;;;7389822;19;20436;-73
2022/11/26 08:40:25;;;;;;;17.80;5.22;;;;;;;;;;7390232;19;20023;-73
2022/11/26 08:42:50;;;;;;;12.40;4.78;;;;;;;;;;7394081;19;20461;-73
2022/11/26 08:45:15;;;;;;;12.38;4.63;;;;;;;;;;7394133;19;20013;-73
2022/11/26 08:47:41;;;;;;;8.85;3.92;;;;;;;;;;7385777;19;19998;-74
2022/11/26 08:50:06;;;;;;;11.88;4.70;;;;;;;;;;7391584;19;20084;-73
2022/11/26 08:52:32;;;;;;;10.13;4.63;;;;;;;;;;7390633;19;20006;-73
2022/11/26 08:54:57;;;;;;;8.73;4.70;;;;;;;;;;7391013;19;20126;-73
2022/11/26 08:57:22;;;;;;;11.38;4.88;;;;;;;;;;7391381;19;20023;-73
2022/11/26 08:59:49;;;;;;;12.05;4.25;;;;;;;;;;7389893;19;19994;-72
2022/11/26 09:02:14;;;;;;;12.60;4.53;;;;;;;;;;7391213;19;20039;-72
2022/11/26 09:04:40;;;;;;;11.95;5.00;;;;;;;;;;7392947;19;20003;-72
2022/11/26 09:07:05;;;;;;;11.07;4.70;;;;;;;;;;7389168;19;20499;-71
2022/11/26 09:09:31;;;;;;;10.95;4.47;;;;;;;;;;7391690;19;19998;-72
2022/11/26 09:11:58;;;;;;;10.32;3.75;;;;;;;;;;7391091;19;20017;-72
2022/11/26 09:14:26;;;;;;;10.95;4.35;;;;;;;;;;7391789;19;19995;-72
2022/11/26 09:16:53;;;;;;;9.98;4.30;;;;;;;;;;7390067;19;20002;-72
2022/11/26 09:19:19;;;;;;;12.55;4.20;;;;;;;;;;7392060;19;20010;-72
2022/11/26 09:21:44;;;;;;;9.70;4.50;;;;;;;;;;7391698;19;20416;-72
2022/11/26 09:24:10;;;;;;;13.65;3.97;;;;;;;;;;7392541;19;21356;-72
2022/11/26 09:26:36;;;;;;;9.75;3.75;;;;;;;;;;7392411;19;20351;-71
2022/11/26 09:29:02;;;;;;;12.45;3.55;;;;;;;;;;7389673;19;20012;-72
2022/11/26 09:31:27;;;;;;;15.35;2.83;;;;;;;;;;7392844;19;20026;-72
2022/11/26 09:33:57;;;;;;;10.38;3.25;;;;;;;;;;7389376;19;20010;-72
2022/11/26 09:36:23;;;;;;;9.32;2.95;;;;;;;;;;7391070;19;20064;-72
2022/11/26 09:38:52;;;;;;;8.63;3.30;;;;;;;;;;7389810;19;20002;-72
2022/11/26 09:41:54;;;;;;;9.32;3.30;;;;;;;;;;7393185;19;20024;-73
2022/11/26 09:44:26;;;;;;;9.25;3.10;;;;;;;;;;7392081;19;20023;-72
2022/11/26 09:47:03;;;;;;;7.82;3.10;;;;;;;;;;7389484;19;20012;-72
2022/11/26 09:49:35;;;;;;;10.02;2.90;;;;;;;;;;7391836;19;20075;-73
2022/11/26 09:52:02;;;;;;;8.20;3.03;;;;;;;;;;7392220;19;20037;-72
2022/11/26 09:54:29;;;;;;;8.55;2.92;;;;;;;;;;7388509;19;20006;-72
2022/11/26 09:57:27;;;;;;;7.82;2.83;;;;;;;;;;7389191;19;20026;-72
2022/11/26 09:59:54;;;;;;;8.50;2.67;;;;;;;;;;7387902;19;20355;-72
2022/11/26 10:02:20;;;;;;;8.10;3.35;;;;;;;;;;7392401;19;19998;-73
2022/11/26 10:04:46;;;;;;;7.35;2.85;;;;;;;;;;7388967;19;20043;-72
2022/11/26 10:07:32;;;;;;;12.30;3.05;;;;;;;;;;7386142;19;19994;-73
2022/11/26 10:10:08;;;;;;;10.05;2.90;;;;;;;;;;7386089;19;20034;-72
2022/11/26 10:12:37;;;;;;;9.77;3.42;;;;;;;;;;7384714;19;19994;-72
2022/11/26 10:15:16;;;;;;;8.63;3.53;;;;;;;;;;7391572;19;20006;-73
2022/11/26 10:18:18;;;;;;;10.40;3.60;;;;;;;;;;7387291;19;20040;-72
2022/11/26 10:21:16;;;;;;;5.45;3.00;;;;;;;;;;7388077;19;20017;-72
2022/11/26 10:23:47;;;;;;;7.97;3.08;;;;;;;;;;7386758;19;20002;-72
2022/11/26 10:26:34;;;;;;;8.15;3.22;;;;;;;;;;7390844;19;20311;-72
2022/11/26 10:29:26;;;;;;;6.35;2.45;;;;;;;;;;7389314;19;20344;-72
2022/11/26 10:32:00;;;;;;;;;;;;;;;;;;7388143;19;20034;-72
2022/11/26 10:34:56;;;;;;;8.60;3.05;;;;;;;;;;7390266;19;19928;-70
2022/11/26 10:37:23;;;;;;;5.55;2.50;;;;;;;;;;7384666;19;20022;-71
2022/11/26 10:39:56;;;;;;;5.57;2.75;;;;;;;;;;7388830;19;19998;-71
2022/11/26 10:42:22;;;;;;;7.07;2.63;;;;;;;;;;7388680;19;20442;-70
2022/11/26 10:44:52;;;;;;;6.63;3.00;;;;;;;;;;7388466;19;20476;-70
2022/11/26 10:47:29;;;;;;;8.73;3.00;;;;;;;;;;7383525;19;20003;-71
2022/11/26 10:50:12;;;;;;;6.38;2.65;;;;;;;;;;7390218;19;20610;-72
2022/11/26 10:52:38;;;;;;;4.68;2.40;;;;;;;;;;7389941;19;20712;-72
2022/11/26 10:55:17;;;;;;;6.03;2.67;;;;;;;;;;7387644;19;20050;-72
2022/11/26 10:57:49;;;;;;;5.82;2.72;;;;;;;;;;7386743;19;20022;-71
2022/11/26 11:00:37;;;;;;;7.63;2.97;;;;;;;;;;7388385;19;20468;-72
2022/11/26 11:03:13;;;;;;;5.55;2.65;;;;;;;;;;7391212;19;20062;-69
2022/11/26 11:05:41;;;;;;;8.75;3.50;;;;;;;;;;7387842;19;20006;-71
2022/11/26 11:08:12;;;;;;;5.80;3.17;;;;;;;;;;7385939;19;19998;-72
2022/11/26 11:10:52;;;;;;;9.07;3.03;;;;;;;;;;7388720;19;20370;-72
2022/11/26 11:13:18;;;;;;;5.82;2.60;;;;;;;;;;7382949;19;20002;-72
2022/11/26 11:15:43;;;;;;;6.07;2.78;;;;;;;;;;7385558;19;20352;-72
2022/11/26 11:18:11;;;;;;;6.30;2.97;;;;;;;;;;7384104;19;19999;-72
2022/11/26 11:20:42;;;;;;;10.63;3.22;;;;;;;;;;7386211;19;20013;-72
2022/11/26 11:23:11;;;;;;;7.65;2.95;;;;;;;;;;7386047;19;20006;-72
2022/11/26 11:25:39;;;;;;;5.78;2.60;;;;;;;;;;7385789;19;20035;-72
2022/11/26 11:28:26;;;;;;;5.30;2.83;;;;;;;;;;7386163;19;20003;-72
2022/11/26 11:31:07;;;;;;;5.03;2.80;;;;;;;;;;7388527;19;20027;-72
2022/11/26 11:33:32;;;;;;;7.80;3.00;;;;;;;;;;7389396;19;20014;-72
2022/11/26 11:36:16;;;;;;;8.23;3.45;;;;;;;;;;7390448;19;20377;-72
2022/11/26 11:38:51;;;;;;;9.57;3.65;;;;;;;;;;7391578;19;20023;-72
2022/11/26 11:41:22;;;;;;;8.32;3.40;;;;;;;;;;7391964;19;20054;-72
2022/11/26 11:43:48;;;;;;;7.97;2.97;;;;;;;;;;7388581;19;19998;-73
2022/11/26 11:46:37;;;;;;;8.98;3.40;;;;;;;;;;7389531;19;20002;-73
2022/11/26 11:49:31;;;;;;;8.23;3.05;;;;;;;;;;7389396;19;20010;-73
2022/11/26 11:52:06;;;;;;;9.27;3.20;;;;;;;;;;7387681;19;20336;-71
2022/11/26 11:54:56;;;;;;;8.40;3.38;;;;;;;;;;7385940;19;20001;-72
2022/11/26 11:57:47;;;;;;;14.95;3.05;;;;;;;;;;7387724;19;20003;-71
2022/11/26 12:00:20;;;;;;;;;;;;;;;;;;7397080;19;19998;-72
2022/11/26 12:02:51;;;;;;;10.20;2.85;;;;;;;;;;7396645;19;19919;-72
2022/11/26 12:05:38;;;;;;;9.85;3.67;;;;;;;;;;7395982;19;19991;-72
2022/11/26 12:08:14;;;;;;;11.77;5.38;;;;;;;;;;7393665;19;20006;-72
2022/11/26 12:11:02;;;;;;;10.88;4.47;;;;;;;;;;7394928;19;19999;-72
2022/11/26 12:13:29;;;;;;;10.32;3.40;;;;;;;;;;7394325;19;20436;-72
2022/11/26 12:16:00;;;;;;;8.20;3.25;;;;;;;;;;7395919;19;20027;-72
2022/11/26 12:18:40;;;;;;;8.77;3.20;;;;;;;;;;7393558;19;20006;-72
2022/11/26 12:21:11;;;;;;;12.38;3.30;;;;;;;;;;7396165;19;20003;-72
2022/11/26 12:23:52;;;;;;;8.73;3.47;;;;;;;;;;7394280;19;20054;-72
2022/11/26 12:26:20;;;;;;;9.20;4.03;;;;;;;;;;7395861;19;20022;-73
2022/11/26 12:29:11;;;;;;;11.15;4.97;;;;;;;;;;7395389;19;20017;-71
2022/11/26 12:31:50;;;;;;;14.02;3.72;;;;;;;;;;7395613;19;20006;-72
2022/11/26 12:34:27;;;;;;;14.23;3.65;;;;;;;;;;7393970;19;20007;-73
2022/11/26 12:37:04;;;;;;;8.50;3.53;;;;;;;;;;7394100;19;20078;-71
2022/11/26 12:39:41;;;;;;;8.93;3.88;;;;;;;;;;7399189;19;20443;-73
2022/11/26 12:42:16;;;;;;;8.15;3.40;;;;;;;;;;7399104;19;20452;-72
2022/11/26 12:44:45;;;;;;;9.45;3.30;;;;;;;;;;7395316;19;20002;-71
2022/11/26 12:47:42;;;;;;;13.18;4.43;;;;;;;;;;7393495;19;19992;-72
2022/11/26 12:50:29;;;;;;;7.07;3.78;;;;;;;;;;7394201;19;19994;-73
2022/11/26 12:53:00;;;;;;;7.47;2.88;;;;;;;;;;7394935;19;20025;-72
2022/11/26 12:55:39;;;;;;;12.63;3.88;;;;;;;;;;7393559;19;20313;-72
2022/11/26 12:58:16;;;;;;;6.18;2.95;;;;;;;;;;7392485;19;20015;-72
2022/11/26 13:00:42;;;;;;;7.47;3.22;;;;;;;;;;7394827;19;19998;-72
2022/11/26 13:03:17;;;;;;;10.82;3.88;;;;;;;;;;7394375;19;20019;-72
2022/11/26 13:06:04;;;;;;;8.20;3.35;;;;;;;;;;7394468;19;20003;-72
2022/11/26 13:08:50;;;;;;;8.63;4.13;;;;;;;;;;7391812;19;20012;-72
2022/11/26 13:11:36;;;;;;;11.50;4.32;;;;;;;;;;7392170;19;20342;-72
2022/11/26 13:14:19;;;;;;;11.15;4.20;;;;;;;;;;7391001;19;20372;-72
2022/11/26 13:16:55;;;;;;;11.60;4.40;;;;;;;;;;7392198;19;20009;-72
2022/11/26 13:19:36;;;;;;;13.88;5.22;;;;;;;;;;7399257;19;20011;-71
2022/11/26 13:22:34;;;;;;;9.53;4.63;;;;;;;;;;7394832;19;20305;-72
2022/11/26 13:25:28;;;;;;;12.43;4.43;;;;;;;;;;7395762;19;20078;-72
2022/11/26 13:28:17;;;;;;;7.90;3.40;;;;;;;;;;7393572;19;19995;-72
2022/11/26 13:31:07;;;;;;;8.10;3.60;;;;;;;;;;7397227;19;20019;-71
2022/11/26 13:33:51;;;;;;;12.55;3.63;;;;;;;;;;7396914;19;20032;-72
2022/11/26 13:36:19;;;;;;;7.60;3.47;;;;;;;;;;7392795;19;20030;-72
2022/11/26 13:38:57;;;;;;;11.38;3.58;;;;;;;;;;7388841;19;20111;-72
2022/11/26 13:41:37;;;;;;;7.45;3.28;;;;;;;;;;7388496;19;20007;-72
2022/11/26 13:44:38;;;;;;;9.73;3.50;;;;;;;;;;7388817;19;20006;-72
2022/11/26 13:47:16;;;;;;;12.00;3.37;;;;;;;;;;7384424;19;20003;-72
2022/11/26 13:49:51;;;;;;;11.80;3.83;;;;;;;;;;7390539;19;20154;-72
2022/11/26 13:52:38;;;;;;;6.70;3.03;;;;;;;;;;7388976;19;19999;-72
2022/11/26 13:55:13;;;;;;;10.25;3.67;;;;;;;;;;7390612;19;20002;-72
2022/11/26 13:57:42;;;;;;;9.70;3.22;;;;;;;;;;7391951;19;20448;-72
2022/11/26 14:00:09;;;;;;;7.38;2.72;;;;;;;;;;7396678;19;20015;-72
2022/11/26 14:02:40;;;;;;;8.63;3.15;;;;;;;;;;7394049;19;20028;-75
2022/11/26 14:05:12;;;;;;;7.47;3.72;;;;;;;;;;7394392;19;20548;-75
2022/11/26 14:07:37;;;;;;;12.13;3.47;;;;;;;;;;7394960;19;20003;-75
2022/11/26 14:10:06;;;;;;;8.70;3.00;;;;;;;;;;7396384;19;20526;-75
2022/11/26 14:13:02;;;;;;;7.75;2.85;;;;;;;;;;7396701;19;19999;-74
2022/11/26 14:15:39;;;;;;;10.30;3.00;;;;;;;;;;7395872;19;20005;-74
2022/11/26 14:18:06;;;;;;;9.93;3.00;;;;;;;;;;7392369;19;20325;-75
2022/11/26 14:21:00;;;;;;;5.43;2.45;;;;;;;;;;7396087;19;20593;-74
2022/11/26 14:23:44;;;;;;;6.80;2.70;;;;;;;;;;7390612;19;19999;-74
2022/11/26 14:26:17;;;;;;;5.13;2.40;;;;;;;;;;7394077;19;19998;-74
2022/11/26 14:28:43;;;;;;;5.05;2.33;;;;;;;;;;7395764;19;19999;-74
2022/11/26 14:31:37;;;;;;;7.07;3.05;;;;;;;;;;7395558;19;20062;-75
2022/11/26 14:34:12;;;;;;;7.72;2.65;;;;;;;;;;7390245;19;20058;-74
2022/11/26 14:36:59;;;;;;;9.60;2.58;;;;;;;;;;7390761;19;20018;-74
2022/11/26 14:39:26;;;;;;;10.73;2.95;;;;;;;;;;7391396;19;20092;-74
2022/11/26 14:41:56;;;;;;;8.32;2.97;;;;;;;;;;7391217;19;20002;-75
2022/11/26 14:44:24;;;;;;;9.35;3.17;;;;;;;;;;7391554;19;20062;-74
2022/11/26 14:47:06;;;;;;;8.80;2.95;;;;;;;;;;7389019;19;20122;-74
2022/11/26 14:49:34;;;;;;;7.93;3.22;;;;;;;;;;7389572;19;20018;-74
2022/11/26 14:52:02;;;;;;;6.13;2.83;;;;;;;;;;7391531;19;20436;-73
2022/11/26 14:54:31;;;;;;;7.60;3.40;;;;;;;;;;7392619;19;20165;-73
2022/11/26 14:57:03;;;;;;;13.88;3.63;;;;;;;;;;7388739;19;19998;-73